Kingsland, Texas
Current Conditions -  °F | °C
As of 8:35 AM on Friday 31 Oct 2014 (Local Time) from KDZB Reporting Station
Clear Clear  
Wind Chill: 57°   Ceiling: Unl
Heat Index: 57°   Visibility: 10mi
Dew Point: 47°   Wind: 5mph
Humidity: 69%   Direction: 10°N
Pressure: 30.28"   Gusts: NA
Location:  30.66°N, 98.44°W
Report Text: KDZB 311335Z AUTO 01004KT 10SM CLR 14/08 A3028 RMK AO2 T01400084
Loading
Personal Weather Stations






























Interactive Weather Map
Tropical Storm Tracking
New forecast layout! Learn more

10-Day Weather Forecast

Advertisements
Track Severe Weather on mobile